createdAt,value
2018-04-18T00:00:43.739Z,82.50
2018-04-18T00:03:11.263Z,82.80
2018-04-18T00:05:38.859Z,82.50
2018-04-18T00:08:06.386Z,82.70
2018-04-18T00:10:34.698Z,82.70
2018-04-18T00:13:02.221Z,82.70
2018-04-18T00:15:29.755Z,82.50
2018-04-18T00:17:57.282Z,83.00
2018-04-18T00:20:24.840Z,82.90
2018-04-18T00:22:52.355Z,82.80
2018-04-18T00:25:19.931Z,82.30
2018-04-18T00:27:47.447Z,82.10
2018-04-18T00:30:14.991Z,82.60
2018-04-18T00:32:42.536Z,82.40
2018-04-18T00:35:10.098Z,82.60
2018-04-18T00:37:37.606Z,81.90
2018-04-18T00:40:05.149Z,82.30
2018-04-18T00:42:32.699Z,82.00
2018-04-18T00:45:00.245Z,81.70
2018-04-18T00:47:27.754Z,82.50
2018-04-18T00:49:55.286Z,82.10
2018-04-18T00:52:22.820Z,81.70
2018-04-18T00:54:50.430Z,81.60
2018-04-18T00:57:17.948Z,82.10
2018-04-18T00:59:45.488Z,82.20
2018-04-18T01:02:13.059Z,82.30
2018-04-18T01:04:40.654Z,82.40
2018-04-18T01:07:08.159Z,82.50
2018-04-18T01:09:35.720Z,82.50
2018-04-18T01:12:03.462Z,83.10
2018-04-18T01:14:30.983Z,83.20
2018-04-18T01:16:58.543Z,83.20
2018-04-18T01:19:26.063Z,82.90
2018-04-18T01:21:53.629Z,83.00
2018-04-18T01:24:21.167Z,83.30
2018-04-18T01:26:48.699Z,83.50
2018-04-18T01:29:16.239Z,83.70
2018-04-18T01:31:43.780Z,84.00
2018-04-18T01:34:11.318Z,83.80
2018-04-18T01:36:38.863Z,83.80
2018-04-18T01:39:06.407Z,83.80
2018-04-18T01:41:33.943Z,83.70
2018-04-18T01:44:01.459Z,84.20
2018-04-18T01:46:29.770Z,83.80
2018-04-18T01:49:08.975Z,83.70
2018-04-18T01:51:36.557Z,83.70
2018-04-18T01:54:04.076Z,84.10
2018-04-18T01:56:31.628Z,84.20
2018-04-18T01:58:59.833Z,83.80
2018-04-18T02:01:27.371Z,83.80
2018-04-18T02:03:54.898Z,83.80
2018-04-18T02:06:22.456Z,84.20
2018-04-18T02:08:50.000Z,83.90
2018-04-18T02:11:17.535Z,83.90
2018-04-18T02:13:45.091Z,83.90
2018-04-18T02:16:12.624Z,84.20
2018-04-18T02:18:40.152Z,84.20
2018-04-18T02:21:07.683Z,84.50
2018-04-18T02:23:35.200Z,84.60
2018-04-18T02:26:02.736Z,84.20
2018-04-18T02:28:30.267Z,84.50
2018-04-18T02:30:57.812Z,84.30
2018-04-18T02:33:25.609Z,83.90
2018-04-18T02:35:53.150Z,83.80
2018-04-18T02:38:20.666Z,83.60
2018-04-18T02:40:48.228Z,84.10
2018-04-18T02:43:15.742Z,84.60
2018-04-18T02:45:43.279Z,84.60
2018-04-18T02:48:11.573Z,84.10
2018-04-18T02:50:39.099Z,85.00
2018-04-18T02:53:06.623Z,85.40
2018-04-18T02:55:53.402Z,85.70
2018-04-18T02:58:20.932Z,85.90
2018-04-18T03:00:48.475Z,86.50
2018-04-18T03:03:16.016Z,86.40
2018-04-18T03:05:43.557Z,86.00
2018-04-18T03:08:11.083Z,86.30
2018-04-18T03:10:39.358Z,86.00
2018-04-18T03:13:07.654Z,86.10
2018-04-18T03:15:35.158Z,86.00
2018-04-18T03:18:02.698Z,86.20
2018-04-18T03:20:30.208Z,85.90
2018-04-18T03:22:58.516Z,86.10
2018-04-18T03:25:26.052Z,86.00
2018-04-18T03:27:54.369Z,86.10
2018-04-18T03:30:21.891Z,86.00
2018-04-18T03:32:50.203Z,86.50
2018-04-18T03:35:17.711Z,86.50
2018-04-18T03:37:45.256Z,86.60
2018-04-18T03:40:12.767Z,86.50
2018-04-18T03:42:40.302Z,86.20
2018-04-18T03:45:07.812Z,86.40
2018-04-18T03:47:35.335Z,86.10
2018-04-18T03:50:03.618Z,86.80
2018-04-18T03:52:31.921Z,86.50
2018-04-18T03:54:59.426Z,86.50
2018-04-18T03:57:26.972Z,86.40
2018-04-18T03:59:54.483Z,86.20
2018-04-18T04:02:22.022Z,86.50
2018-04-18T04:04:50.293Z,87.00
2018-04-18T04:07:17.832Z,86.90
2018-04-18T04:09:45.382Z,86.70
2018-04-18T04:12:12.927Z,86.50
2018-04-18T04:14:40.435Z,87.00
2018-04-18T04:17:19.551Z,87.20
2018-04-18T04:19:58.850Z,87.30
2018-04-18T04:22:38.187Z,87.00
2018-04-18T04:25:06.849Z,87.10
2018-04-18T04:27:34.386Z,87.10
2018-04-18T04:30:01.899Z,87.20
2018-04-18T04:32:29.443Z,87.00
2018-04-18T04:34:56.955Z,87.00
2018-04-18T04:37:25.346Z,86.80
2018-04-18T04:39:53.646Z,86.50
2018-04-18T04:42:21.228Z,86.40
2018-04-18T04:44:48.779Z,86.80
2018-04-18T04:47:17.065Z,86.20
2018-04-18T04:49:44.579Z,86.20
2018-04-18T04:52:12.121Z,86.20
2018-04-18T04:54:39.630Z,86.80
2018-04-18T04:57:07.187Z,86.80
2018-04-18T04:59:34.702Z,86.80
2018-04-18T05:02:02.240Z,86.70
2018-04-18T05:04:29.752Z,86.50
2018-04-18T05:06:57.341Z,86.40
2018-04-18T05:09:24.842Z,86.50
2018-04-18T05:11:52.400Z,86.50
2018-04-18T05:14:19.922Z,86.40
2018-04-18T05:16:47.489Z,86.70
2018-04-18T05:19:15.023Z,86.40
2018-04-18T05:21:42.534Z,86.20
2018-04-18T05:24:10.059Z,86.00
2018-04-18T05:26:37.590Z,86.20
2018-04-18T05:29:05.891Z,86.20
2018-04-18T05:31:33.417Z,86.20
2018-04-18T05:34:00.998Z,84.80
2018-04-18T05:36:29.286Z,84.70
2018-04-18T05:38:56.874Z,84.70
2018-04-18T05:41:24.382Z,84.00
2018-04-18T05:43:53.343Z,82.30
2018-04-18T05:46:20.859Z,82.30
2018-04-18T05:48:49.217Z,78.60
2018-04-18T05:51:16.730Z,75.20
2018-04-18T05:53:44.306Z,72.00
2018-04-18T05:56:11.827Z,68.60
2018-04-18T05:58:39.966Z,65.60
2018-04-18T06:01:07.482Z,64.60
2018-04-18T06:03:35.017Z,64.30
2018-04-18T06:06:02.546Z,62.70
2018-04-18T06:08:30.854Z,59.00
2018-04-18T06:10:58.368Z,58.80
2018-04-18T06:13:25.930Z,58.80
2018-04-18T06:15:53.458Z,58.20
2018-04-18T06:18:21.006Z,58.80
2018-04-18T06:20:48.527Z,58.80
2018-04-18T06:23:16.073Z,58.20
2018-04-18T06:25:43.595Z,59.90
2018-04-18T06:28:11.128Z,61.40
2018-04-18T06:30:38.647Z,62.30
2018-04-18T06:33:06.193Z,62.30
2018-04-18T06:35:33.715Z,62.70
2018-04-18T06:38:01.267Z,63.40
2018-04-18T06:40:28.780Z,63.20
2018-04-18T06:42:56.310Z,61.00
2018-04-18T06:45:23.818Z,58.90
2018-04-18T06:47:51.374Z,57.70
2018-04-18T06:50:19.303Z,55.70
2018-04-18T06:52:46.851Z,53.00
2018-04-18T06:55:14.376Z,52.40
2018-04-18T06:57:41.910Z,51.90
2018-04-18T07:00:09.480Z,52.50
2018-04-18T07:02:36.999Z,51.80
2018-04-18T07:05:04.549Z,51.20
2018-04-18T07:07:32.058Z,52.10
2018-04-18T07:10:01.056Z,53.80
2018-04-18T07:12:28.588Z,55.20
2018-04-18T07:14:56.704Z,55.50
2018-04-18T07:17:24.223Z,55.60
2018-04-18T07:19:51.831Z,55.50
2018-04-18T07:22:19.358Z,55.00
2018-04-18T07:24:48.009Z,55.50
2018-04-18T07:27:15.519Z,55.80
2018-04-18T07:29:43.077Z,56.40
2018-04-18T07:32:10.597Z,56.00
2018-04-18T07:34:38.154Z,55.80
2018-04-18T07:37:05.691Z,56.20
2018-04-18T07:39:33.242Z,56.80
2018-04-18T07:42:01.522Z,56.10
2018-04-18T07:44:29.066Z,56.00
2018-04-18T07:46:56.620Z,57.30
2018-04-18T07:49:24.171Z,56.90
2018-04-18T07:51:51.727Z,57.30
2018-04-18T07:54:19.270Z,56.60
2018-04-18T07:56:46.795Z,56.90
2018-04-18T07:59:14.343Z,57.90
2018-04-18T08:01:42.639Z,57.50
2018-04-18T08:04:10.207Z,56.90
2018-04-18T08:06:37.723Z,55.50
2018-04-18T08:09:06.146Z,56.70
2018-04-18T08:11:33.692Z,55.50
2018-04-18T08:14:01.239Z,56.30
2018-04-18T08:16:28.767Z,55.30
2018-04-18T08:18:56.310Z,56.00
2018-04-18T08:21:23.866Z,53.10
2018-04-18T08:23:51.411Z,53.40
2018-04-18T08:26:18.945Z,52.90
2018-04-18T08:28:47.269Z,51.90
2018-04-18T08:31:14.781Z,51.70
2018-04-18T08:33:42.314Z,50.20
2018-04-18T08:36:09.857Z,50.50
2018-04-18T08:38:37.393Z,51.00
2018-04-18T08:41:04.927Z,51.00
2018-04-18T08:43:32.459Z,52.30
2018-04-18T08:46:00.004Z,53.10
2018-04-18T08:48:27.547Z,53.00
2018-04-18T08:50:55.497Z,51.70
2018-04-18T08:53:23.023Z,50.60
2018-04-18T08:55:51.326Z,50.30
2018-04-18T08:58:18.844Z,50.30
2018-04-18T09:00:47.150Z,49.80
2018-04-18T09:03:15.447Z,48.10
2018-04-18T09:05:42.999Z,48.10
2018-04-18T09:08:10.907Z,48.60
2018-04-18T09:10:38.446Z,47.90
2018-04-18T09:13:06.359Z,48.00
2018-04-18T09:15:33.911Z,48.60
2018-04-18T09:18:01.476Z,50.10
2018-04-18T09:20:29.914Z,48.30
2018-04-18T09:22:57.514Z,46.00
2018-04-18T09:25:25.061Z,45.80
2018-04-18T09:27:52.567Z,46.00
2018-04-18T09:30:20.903Z,45.20
2018-04-18T09:32:48.415Z,45.20
2018-04-18T09:35:15.973Z,46.40
2018-04-18T09:37:43.484Z,44.60
2018-04-18T09:40:11.024Z,45.00
2018-04-18T09:42:38.548Z,44.10
2018-04-18T09:45:06.149Z,46.00
2018-04-18T09:47:33.635Z,45.20
2018-04-18T09:50:01.175Z,43.70
2018-04-18T09:52:28.708Z,45.90
2018-04-18T09:54:56.258Z,44.40
2018-04-18T09:57:23.789Z,46.20
2018-04-18T09:59:51.358Z,46.90
2018-04-18T10:05:20.082Z,43.20
2018-04-18T10:07:47.590Z,43.20
2018-04-18T10:10:15.173Z,43.30
2018-04-18T10:12:42.701Z,44.40
2018-04-18T10:15:10.242Z,43.40
2018-04-18T10:17:37.766Z,45.80
2018-04-18T10:20:05.310Z,46.60
2018-04-18T10:22:32.848Z,44.10
2018-04-18T10:25:00.378Z,43.20
2018-04-18T10:27:27.899Z,44.20
2018-04-18T10:29:56.199Z,42.30
2018-04-18T10:32:23.720Z,42.20
2018-04-18T10:34:51.235Z,43.50
2018-04-18T10:37:18.786Z,43.90
2018-04-18T10:39:46.313Z,42.90
2018-04-18T10:42:13.838Z,44.40
2018-04-18T10:44:41.351Z,43.80
2018-04-18T10:47:08.892Z,42.90
2018-04-18T10:49:36.396Z,42.60
2018-04-18T10:52:03.938Z,43.60
2018-04-18T10:54:31.459Z,42.90
2018-04-18T10:56:59.018Z,42.50
2018-04-18T10:59:26.539Z,44.20
2018-04-18T11:01:54.262Z,44.20
2018-04-18T11:04:21.770Z,43.40
2018-04-18T11:06:49.936Z,42.60
2018-04-18T11:09:17.447Z,42.10
2018-04-18T11:11:44.985Z,43.20
2018-04-18T11:14:12.498Z,41.80
2018-04-18T11:16:40.041Z,43.90
2018-04-18T11:19:07.554Z,43.50
2018-04-18T11:21:35.090Z,42.10
2018-04-18T11:24:02.598Z,41.90
2018-04-18T11:26:30.153Z,42.30
2018-04-18T11:28:57.673Z,43.00
2018-04-18T11:31:25.204Z,41.00
2018-04-18T11:33:53.341Z,42.80
2018-04-18T11:36:21.658Z,42.90
2018-04-18T11:38:49.602Z,42.80
2018-04-18T11:41:17.148Z,43.40
2018-04-18T11:43:44.683Z,40.90
2018-04-18T11:46:13.092Z,42.50
2018-04-18T11:48:40.603Z,41.60
2018-04-18T11:51:08.172Z,42.30
2018-04-18T11:53:35.698Z,41.70
2018-04-18T11:56:03.248Z,43.70
2018-04-18T11:58:30.778Z,41.90
2018-04-18T12:00:58.315Z,43.10
2018-04-18T12:03:25.833Z,42.70
2018-04-18T12:05:53.374Z,42.10
2018-04-18T12:08:20.891Z,42.80
2018-04-18T12:10:48.401Z,43.50
2018-04-18T12:13:15.935Z,44.00
2018-04-18T12:15:43.485Z,44.40
2018-04-18T12:18:11.031Z,43.50
2018-04-18T12:20:38.599Z,43.90
2018-04-18T12:23:06.111Z,41.80
2018-04-18T12:25:33.624Z,44.90
2018-04-18T12:28:01.156Z,43.90
2018-04-18T12:30:28.678Z,43.60
2018-04-18T12:32:56.993Z,43.50
2018-04-18T12:35:24.511Z,43.50
2018-04-18T12:37:52.342Z,43.00
2018-04-18T12:40:19.862Z,43.80
2018-04-18T12:42:48.173Z,44.20
2018-04-18T12:45:15.692Z,44.20
2018-04-18T12:47:43.254Z,45.10
2018-04-18T12:50:11.537Z,46.40
2018-04-18T12:52:39.066Z,46.40
2018-04-18T12:55:06.588Z,45.50
2018-04-18T12:57:34.140Z,44.70
2018-04-18T13:00:01.683Z,45.90
2018-04-18T13:02:29.234Z,45.70
2018-04-18T13:04:56.752Z,45.30
2018-04-18T13:07:24.291Z,44.80
2018-04-18T13:09:51.810Z,45.40
2018-04-18T13:12:19.438Z,46.00
2018-04-18T13:14:46.923Z,44.40
2018-04-18T13:17:15.260Z,46.10
2018-04-18T13:19:42.775Z,44.60
2018-04-18T13:22:12.219Z,44.50
2018-04-18T13:24:39.733Z,44.40
2018-04-18T13:27:08.048Z,45.00
2018-04-18T13:29:35.872Z,44.70
2018-04-18T13:32:03.407Z,45.30
2018-04-18T13:34:30.923Z,45.40
2018-04-18T13:36:58.476Z,45.70
2018-04-18T13:39:25.996Z,46.70
2018-04-18T13:41:53.556Z,44.30
2018-04-18T13:44:21.124Z,44.70
2018-04-18T13:46:48.656Z,45.50
2018-04-18T13:49:16.179Z,44.30
2018-04-18T13:51:44.140Z,44.70
2018-04-18T13:54:11.699Z,44.40
2018-04-18T13:56:39.227Z,45.10
2018-04-18T13:59:06.811Z,44.50
2018-04-18T14:01:36.236Z,45.10
2018-04-18T14:04:03.935Z,45.00
2018-04-18T14:06:31.455Z,45.30
2018-04-18T14:08:58.994Z,44.20
2018-04-18T14:11:27.627Z,43.50
2018-04-18T14:13:55.172Z,43.10
2018-04-18T14:16:22.695Z,43.80
2018-04-18T14:18:50.273Z,45.60
2018-04-18T14:21:17.826Z,43.90
2018-04-18T14:23:45.378Z,44.10
2018-04-18T14:26:12.910Z,45.60
2018-04-18T14:28:40.481Z,44.50
2018-04-18T14:31:07.998Z,45.00
2018-04-18T14:33:35.531Z,45.10
2018-04-18T14:36:03.062Z,44.00
2018-04-18T14:38:30.606Z,42.90
2018-04-18T14:40:58.127Z,44.10
2018-04-18T14:43:26.434Z,44.00
2018-04-18T14:45:53.984Z,44.00
2018-04-18T14:48:21.512Z,43.40
2018-04-18T14:50:50.331Z,43.50
2018-04-18T14:53:17.874Z,43.40
2018-04-18T14:55:45.386Z,41.80
2018-04-18T14:58:12.945Z,41.00
2018-04-18T15:00:40.462Z,40.10
2018-04-18T15:03:08.243Z,41.20
2018-04-18T15:05:35.781Z,40.10
2018-04-18T15:08:04.091Z,42.10
2018-04-18T15:10:31.611Z,42.10
2018-04-18T15:12:59.193Z,41.00
2018-04-18T15:15:26.727Z,42.30
2018-04-18T15:17:54.266Z,39.00
2018-04-18T15:20:21.776Z,39.50
2018-04-18T15:22:49.314Z,40.10
2018-04-18T15:25:16.853Z,41.30
2018-04-18T15:27:44.389Z,41.30
2018-04-18T15:30:11.909Z,39.70
2018-04-18T15:32:39.859Z,39.40
2018-04-18T15:35:08.155Z,37.20
2018-04-18T15:37:35.679Z,37.10
2018-04-18T15:40:03.705Z,36.20
2018-04-18T15:42:31.637Z,38.00
2018-04-18T15:44:59.172Z,37.90
2018-04-18T15:47:26.698Z,38.30
2018-04-18T15:49:54.258Z,36.60
2018-04-18T15:52:21.983Z,36.60
2018-04-18T15:54:49.522Z,39.30
2018-04-18T15:57:17.046Z,38.00
2018-04-18T15:59:44.598Z,37.50
2018-04-18T16:02:12.131Z,37.70
2018-04-18T16:04:39.670Z,36.90
2018-04-18T16:07:07.182Z,37.40
2018-04-18T16:09:34.734Z,37.10
2018-04-18T16:12:02.253Z,36.50
2018-04-18T16:14:30.559Z,38.30
2018-04-18T16:16:58.105Z,37.80
2018-04-18T16:19:25.658Z,37.60
2018-04-18T16:21:53.938Z,35.70
2018-04-18T16:24:21.477Z,35.70
2018-04-18T16:26:49.030Z,35.70
2018-04-18T16:29:28.543Z,36.80
2018-04-18T16:31:56.084Z,36.60
2018-04-18T16:34:23.627Z,37.50
2018-04-18T16:36:52.071Z,37.60
2018-04-18T16:39:19.598Z,37.30
2018-04-18T16:41:47.125Z,37.60
2018-04-18T16:44:15.460Z,35.60
2018-04-18T16:46:42.967Z,35.60
2018-04-18T16:49:10.499Z,34.80
2018-04-18T16:51:38.010Z,35.00
2018-04-18T16:54:05.545Z,35.80
2018-04-18T16:56:33.081Z,36.20
2018-04-18T16:59:00.621Z,35.90
2018-04-18T17:01:28.150Z,36.80
2018-04-18T17:03:55.689Z,36.40
2018-04-18T17:06:23.207Z,36.70
2018-04-18T17:08:50.734Z,36.10
2018-04-18T17:11:18.255Z,36.50
2018-04-18T17:13:45.767Z,37.70
2018-04-18T17:16:13.323Z,38.00
2018-04-18T17:18:40.838Z,37.40
2018-04-18T17:21:08.381Z,38.80
2018-04-18T17:23:35.901Z,38.10
2018-04-18T17:26:03.471Z,39.30
2018-04-18T17:28:30.998Z,39.80
2018-04-18T17:30:59.447Z,39.50
2018-04-18T17:33:26.999Z,39.80
2018-04-18T17:35:54.534Z,41.30
2018-04-18T17:38:22.055Z,41.20
2018-04-18T17:40:49.608Z,42.20
2018-04-18T17:43:17.133Z,41.80
2018-04-18T17:45:44.696Z,42.10
2018-04-18T17:48:12.214Z,44.80
2018-04-18T17:50:39.758Z,43.10
2018-04-18T17:53:07.287Z,43.90
2018-04-18T17:55:34.858Z,44.20
2018-04-18T17:58:02.383Z,44.70
2018-04-18T18:00:30.316Z,44.40
2018-04-18T18:02:57.826Z,47.30
2018-04-18T18:05:25.395Z,47.20
2018-04-18T18:07:52.961Z,48.20
2018-04-18T18:10:20.510Z,49.30
2018-04-18T18:12:48.043Z,50.10
2018-04-18T18:15:15.582Z,51.70
2018-04-18T18:17:43.121Z,51.50
2018-04-18T18:20:10.659Z,53.90
2018-04-18T18:22:38.178Z,53.90
2018-04-18T18:25:05.725Z,56.10
2018-04-18T18:27:33.267Z,56.00
2018-04-18T18:30:00.804Z,58.20
2018-04-18T18:32:28.322Z,57.10
2018-04-18T18:34:55.870Z,54.70
2018-04-18T18:37:23.391Z,56.70
2018-04-18T18:39:51.697Z,57.10
2018-04-18T18:42:19.623Z,57.20
2018-04-18T18:44:47.184Z,55.50
2018-04-18T18:47:14.694Z,54.40
2018-04-18T18:49:42.259Z,56.80
2018-04-18T18:52:09.840Z,53.20
2018-04-18T18:54:37.354Z,54.30
2018-04-18T18:57:04.901Z,53.80
2018-04-18T18:59:32.431Z,54.80
2018-04-18T19:02:00.595Z,53.80
2018-04-18T19:04:28.122Z,56.90
2018-04-18T19:06:55.975Z,57.10
2018-04-18T19:09:24.216Z,54.80
2018-04-18T19:11:51.764Z,55.60
2018-04-18T19:14:19.299Z,56.60
2018-04-18T19:16:46.836Z,58.20
2018-04-18T19:19:14.957Z,56.60
2018-04-18T19:21:42.495Z,59.00
2018-04-18T19:24:10.014Z,58.90
2018-04-18T19:26:38.578Z,58.40
2018-04-18T19:29:06.120Z,60.70
2018-04-18T19:31:33.675Z,60.00
2018-04-18T19:34:01.955Z,60.90
2018-04-18T19:36:29.555Z,60.90
2018-04-18T19:38:57.844Z,60.00
2018-04-18T19:41:25.386Z,60.00
2018-04-18T19:43:53.669Z,60.30
2018-04-18T19:46:21.214Z,60.20
2018-04-18T19:48:48.743Z,59.80
2018-04-18T19:51:16.315Z,59.70
2018-04-18T19:53:43.835Z,59.60
2018-04-18T19:56:11.367Z,59.50
2018-04-18T19:58:38.878Z,59.60
2018-04-18T20:01:06.411Z,59.50
2018-04-18T20:03:33.935Z,59.90
2018-04-18T20:06:01.495Z,59.70
2018-04-18T20:08:29.479Z,59.80
2018-04-18T20:10:57.050Z,60.10
2018-04-18T20:13:24.604Z,60.30
2018-04-18T20:15:52.142Z,60.50
2018-04-18T20:18:19.668Z,60.50
2018-04-18T20:20:47.227Z,60.90
2018-04-18T20:23:14.750Z,60.90
2018-04-18T20:25:43.059Z,60.90
2018-04-18T20:28:10.660Z,60.90
2018-04-18T20:30:38.180Z,61.20
2018-04-18T20:33:05.706Z,61.70
2018-04-18T20:35:33.243Z,61.80
2018-04-18T20:38:00.824Z,61.80
2018-04-18T20:40:28.327Z,61.80
2018-04-18T20:42:56.772Z,62.20
2018-04-18T20:45:24.291Z,62.20
2018-04-18T20:47:51.824Z,62.40
2018-04-18T20:50:19.342Z,62.50
2018-04-18T20:52:47.655Z,62.90
2018-04-18T20:55:15.207Z,62.90
2018-04-18T20:57:43.693Z,63.10
2018-04-18T21:00:11.212Z,63.10
2018-04-18T21:02:39.535Z,64.00
2018-04-18T21:05:07.091Z,63.80
2018-04-18T21:07:34.599Z,63.90
2018-04-18T21:10:02.131Z,63.90
2018-04-18T21:12:29.668Z,64.20
2018-04-18T21:14:57.394Z,64.30
2018-04-18T21:17:25.161Z,64.40
2018-04-18T21:19:52.717Z,64.90
2018-04-18T21:22:20.254Z,65.40
2018-04-18T21:24:47.768Z,65.20
2018-04-18T21:27:15.307Z,65.00
2018-04-18T21:29:43.592Z,65.20
2018-04-18T21:32:11.143Z,65.10
2018-04-18T21:34:38.654Z,65.40
2018-04-18T21:37:06.207Z,65.40
2018-04-18T21:39:33.729Z,65.90
2018-04-18T21:42:02.045Z,66.10
2018-04-18T21:44:29.611Z,66.00
2018-04-18T21:46:57.152Z,66.40
2018-04-18T21:49:24.720Z,67.50
2018-04-18T21:51:52.259Z,68.00
2018-04-18T21:54:19.790Z,69.90
2018-04-18T21:56:47.345Z,69.60
2018-04-18T21:59:14.865Z,71.00
2018-04-18T22:01:42.400Z,72.30
2018-04-18T22:04:09.958Z,73.10
2018-04-18T22:06:37.513Z,72.20
2018-04-18T22:09:05.054Z,72.70
2018-04-18T22:11:32.568Z,73.60
2018-04-18T22:14:00.137Z,72.10
2018-04-18T22:16:27.679Z,73.70
2018-04-18T22:18:55.223Z,73.80
2018-04-18T22:21:22.756Z,74.40
2018-04-18T22:23:50.286Z,74.70
2018-04-18T22:26:17.867Z,75.00
2018-04-18T22:28:45.403Z,76.10
2018-04-18T22:31:12.922Z,75.40
2018-04-18T22:33:40.464Z,74.20
2018-04-18T22:36:08.008Z,75.10
2018-04-18T22:38:35.551Z,75.90
2018-04-18T22:41:03.063Z,75.70
2018-04-18T22:43:30.599Z,76.00
2018-04-18T22:45:58.888Z,76.80
2018-04-18T22:48:26.424Z,76.00
2018-04-18T22:50:53.947Z,76.20
2018-04-18T22:53:21.482Z,76.50
2018-04-18T22:55:49.016Z,76.50
2018-04-18T22:58:16.559Z,77.20
2018-04-18T23:00:44.078Z,77.10
2018-04-18T23:03:11.615Z,77.60
2018-04-18T23:05:39.190Z,77.40
2018-04-18T23:08:06.734Z,77.90
2018-04-18T23:10:35.006Z,77.80
2018-04-18T23:13:02.546Z,77.70
2018-04-18T23:15:30.085Z,77.60
2018-04-18T23:17:57.631Z,77.90
2018-04-18T23:20:25.155Z,77.10
2018-04-18T23:22:53.502Z,77.00
2018-04-18T23:25:21.042Z,77.00
2018-04-18T23:27:48.586Z,76.50
2018-04-18T23:30:16.129Z,77.10
2018-04-18T23:32:43.658Z,76.90
2018-04-18T23:35:11.190Z,77.80
2018-04-18T23:37:38.754Z,77.80
2018-04-18T23:40:06.283Z,78.00
2018-04-18T23:42:33.840Z,77.40
2018-04-18T23:45:02.163Z,77.40
2018-04-18T23:47:29.695Z,77.30
2018-04-18T23:49:57.236Z,77.20
2018-04-18T23:52:24.767Z,77.60
2018-04-18T23:54:52.323Z,78.30
2018-04-18T23:57:19.914Z,78.70
2018-04-18T23:59:47.468Z,79.00
